Time;durP1;ratioP1;P1;durP2;ratioP2;P2;SDS_P1;SDS_P2;PMS_P1;PMS_P2;Temp;Humidity;BMP_temperature;BMP_pressure;BME280_temperature;BME280_humidity;BME280_pressure;Samples;Min_cycle;Max_cycle;Signal;HPM_P1;HPM_P2
2021/09/08 00:02:04;;;;;;;19.00;13.90;;;16.60;69.10;;;15.50;69.90;96426.75;4965964;28;20035;-65
2021/09/08 00:04:29;;;;;;;20.92;14.25;;;16.60;69.30;;;15.46;69.62;96420.25;4961385;28;20035;-66
2021/09/08 00:06:55;;;;;;;16.25;13.50;;;16.50;69.50;;;15.41;69.76;96412.09;4968590;28;20062;-66
2021/09/08 00:09:21;;;;;;;16.67;14.50;;;16.50;69.70;;;15.39;70.69;96411.47;4945313;28;20051;-65
2021/09/08 00:11:47;;;;;;;15.75;13.68;;;16.50;69.70;;;15.35;69.45;96410.28;4968643;28;20039;-65
2021/09/08 00:14:12;;;;;;;19.98;14.55;;;16.40;69.90;;;15.32;70.56;96409.69;4966792;28;20072;-65
2021/09/08 00:16:38;;;;;;;18.25;15.43;;;16.40;69.90;;;15.27;71.30;96404.22;4949814;28;20411;-65
2021/09/08 00:19:04;;;;;;;17.35;14.52;;;16.30;70.10;;;15.24;70.32;96407.28;4947261;28;20178;-66
2021/09/08 00:21:30;;;;;;;20.33;15.30;;;16.30;70.30;;;15.20;71.73;96402.63;4951712;28;20710;-65
2021/09/08 00:23:55;;;;;;;16.90;14.30;;;16.30;70.50;;;15.15;71.47;96400.56;4947633;28;20506;-65
2021/09/08 00:26:21;;;;;;;16.73;14.93;;;16.20;70.60;;;15.12;70.58;96398.34;4969324;28;20074;-66
2021/09/08 00:28:47;;;;;;;18.25;14.55;;;16.10;70.70;;;15.07;71.15;96395.53;4962408;28;20031;-66
2021/09/08 00:31:12;;;;;;;15.60;13.95;;;16.10;70.70;;;15.04;72.16;96401.25;4966194;28;20130;-65
2021/09/08 00:33:38;;;;;;;19.42;14.65;;;16.10;70.60;;;14.99;72.17;96395.75;4958251;28;20034;-66
2021/09/08 00:36:04;;;;;;;16.90;14.25;;;16.00;70.70;;;14.95;72.00;96386.63;4965062;28;20093;-65
2021/09/08 00:38:30;;;;;;;18.42;14.88;;;16.10;70.80;;;14.91;71.04;96386.19;4969152;28;20118;-66
2021/09/08 00:40:56;;;;;;;17.23;14.85;;;16.10;70.70;;;14.88;72.13;96388.44;4952548;28;20077;-66
2021/09/08 00:43:22;;;;;;;17.33;15.15;;;16.00;70.90;;;14.85;72.75;96386.22;4947849;28;20059;-66
2021/09/08 00:45:56;;;;;;;18.17;15.20;;;16.00;71.00;;;14.79;72.05;96387.06;4953185;28;20070;-66
2021/09/08 00:48:21;;;;;;;16.88;14.32;;;15.80;71.00;;;14.75;72.84;96375.25;4952818;28;20122;-66
2021/09/08 00:50:48;;;;;;;16.83;14.65;;;15.80;71.10;;;14.73;72.41;96377.31;4968500;28;20157;-65
2021/09/08 00:53:16;;;;;;;17.58;14.88;;;15.80;71.00;;;14.66;72.78;96372.81;4973758;28;20118;-66
2021/09/08 00:55:44;;;;;;;19.73;14.63;;;15.80;71.20;;;14.63;71.61;96367.94;4945129;29;20042;-65
2021/09/08 00:58:10;;;;;;;18.00;15.73;;;15.70;71.20;;;14.59;72.34;96364.09;4950176;28;20130;-65
2021/09/08 01:00:36;;;;;;;20.10;15.75;;;15.70;71.10;;;14.53;72.56;96367.56;4938098;28;20035;-65
2021/09/08 01:03:02;;;;;;;18.58;15.35;;;15.60;71.20;;;14.51;72.99;96364.31;4971768;28;20461;-65
2021/09/08 01:05:27;;;;;;;18.52;15.07;;;15.60;71.10;;;14.47;71.24;96357.78;4968096;28;20105;-66
2021/09/08 01:07:53;;;;;;;16.35;14.60;;;15.50;71.00;;;14.44;72.66;96360.03;4949475;28;20043;-65
2021/09/08 01:10:19;;;;;;;18.27;15.32;;;15.60;71.00;;;14.40;nan;96364.91;4956584;28;20133;-66
2021/09/08 01:12:45;;;;;;;17.25;14.55;;;15.50;71.10;;;14.35;71.46;96359.44;4944977;28;20614;-65
2021/09/08 01:15:13;;;;;;;18.05;15.63;;;15.50;71.40;;;14.32;71.69;96359.84;4968472;28;20050;-66
2021/09/08 01:17:38;;;;;;;18.75;15.18;;;15.40;71.60;;;14.30;73.55;96356.59;4939905;28;20146;-66
2021/09/08 01:20:05;;;;;;;18.77;16.00;;;15.40;71.60;;;14.24;72.78;96355.56;4952336;28;20118;-65
2021/09/08 01:22:31;;;;;;;19.60;15.43;;;15.40;71.80;;;14.23;73.84;96355.75;4987724;28;20466;-66
2021/09/08 01:24:57;;;;;;;18.80;14.52;;;15.40;71.90;;;14.21;72.94;96360.44;4962693;28;20031;-65
2021/09/08 01:27:24;;;;;;;21.58;15.13;;;15.30;72.00;;;14.18;72.95;96352.94;4958632;28;20082;-66
2021/09/08 01:29:49;;;;;;;16.80;14.35;;;15.30;72.00;;;14.18;72.74;96363.50;4940521;28;20027;-66
2021/09/08 01:32:15;;;;;;;17.27;14.55;;;15.30;71.90;;;14.15;73.23;96366.56;4955883;28;20059;-65
2021/09/08 01:34:41;;;;;;;25.27;13.73;;;15.30;71.80;;;14.12;72.61;96359.03;4970887;28;20502;-66
2021/09/08 01:37:08;;;;;;;19.55;15.02;;;15.20;71.70;;;14.10;73.74;96356.59;4973166;28;20039;-65
2021/09/08 01:39:34;;;;;;;18.95;14.93;;;15.20;71.70;;;14.05;73.01;96356.41;4956306;28;20569;-65
2021/09/08 01:42:00;;;;;;;17.38;14.48;;;15.10;71.70;;;14.02;73.05;96357.59;4955588;28;20050;-66
2021/09/08 01:44:26;;;;;;;20.95;15.25;;;15.20;71.70;;;13.98;73.76;96359.03;4971646;28;20030;-66
2021/09/08 01:46:56;;;;;;;17.88;14.88;;;15.10;71.80;;;13.97;74.00;96360.06;4961101;28;20036;-65
2021/09/08 01:49:22;;;;;;;17.80;14.50;;;15.10;71.80;;;13.96;73.69;96354.97;4969107;28;20031;-65
2021/09/08 01:51:48;;;;;;;19.65;15.18;;;15.10;71.80;;;13.93;73.50;96353.56;4952733;28;20032;-65
2021/09/08 01:54:13;;;;;;;18.45;15.32;;;15.10;71.60;;;13.91;73.15;96352.13;4982326;28;20565;-65
2021/09/08 01:56:39;;;;;;;19.40;15.73;;;15.10;71.90;;;13.86;72.77;96344.00;4970445;28;20632;-65
2021/09/08 01:59:05;;;;;;;18.13;15.88;;;15.00;72.10;;;13.84;72.84;96341.56;4971111;28;20085;-65
2021/09/08 02:01:31;;;;;;;17.88;14.57;;;15.00;72.20;;;13.80;73.40;96340.31;4955041;28;20502;-65
2021/09/08 02:03:56;;;;;;;18.58;15.45;;;15.00;72.20;;;13.76;73.32;96333.81;4938570;28;20035;-65
2021/09/08 02:06:27;;;;;;;16.80;14.55;;;14.90;72.20;;;13.74;74.06;96336.66;4935704;29;20031;-65
2021/09/08 02:08:53;;;;;;;18.13;15.73;;;14.90;72.40;;;13.69;72.87;96338.28;4961884;28;20026;-65
2021/09/08 02:11:19;;;;;;;19.92;15.45;;;14.90;72.80;;;13.69;73.25;96336.47;4952408;28;20038;-65
2021/09/08 02:13:45;;;;;;;16.08;14.23;;;14.90;72.60;;;13.71;73.84;96330.97;4970720;28;20039;-65
2021/09/08 02:16:12;;;;;;;18.95;15.63;;;14.90;72.70;;;13.69;74.46;96335.66;4962371;28;20039;-65
2021/09/08 02:18:37;;;;;;;20.05;15.30;;;14.90;72.80;;;13.68;74.88;96331.38;4960231;28;20221;-65
2021/09/08 02:21:03;;;;;;;19.10;14.88;;;14.90;72.80;;;13.66;74.10;96330.75;4970256;28;20506;-65
2021/09/08 02:23:29;;;;;;;17.92;14.60;;;14.90;72.70;;;13.64;74.44;96330.16;4971289;28;20046;-65
2021/09/08 02:25:55;;;;;;;20.13;14.38;;;14.80;72.70;;;13.61;73.93;96323.44;4938807;28;20110;-65
2021/09/08 02:28:20;;;;;;;16.75;14.82;;;14.80;72.90;;;13.60;73.44;96331.59;4970287;28;20035;-65
2021/09/08 02:30:49;;;;;;;19.05;14.90;;;14.80;72.90;;;13.58;74.52;96328.28;4954098;28;20495;-65
2021/09/08 02:33:16;;;;;;;17.15;15.35;;;14.80;72.90;;;13.54;74.06;96325.25;4970018;28;20430;-65
2021/09/08 02:35:42;;;;;;;18.08;14.95;;;14.70;73.10;;;13.53;74.68;96320.97;4960097;28;20159;-65
2021/09/08 02:38:07;;;;;;;19.27;16.02;;;14.70;73.20;;;13.51;75.10;96323.00;4961268;28;20512;-65
2021/09/08 02:40:33;;;;;;;18.30;15.18;;;14.70;73.50;;;13.51;74.37;96324.84;4939111;29;20073;-65
2021/09/08 02:42:59;;;;;;;18.95;15.88;;;14.70;73.60;;;13.47;75.22;96322.59;4950739;28;20039;-64
2021/09/08 02:45:24;;;;;;;19.92;16.25;;;14.60;74.00;;;13.47;74.47;96319.97;4953448;28;20529;-67
2021/09/08 02:47:50;;;;;;;19.38;15.25;;;14.70;73.80;;;13.45;74.60;96329.13;4949415;28;20536;-64
2021/09/08 02:50:16;;;;;;;23.23;15.80;;;14.60;74.10;;;13.42;75.89;96317.13;4964015;28;20129;-63
2021/09/08 02:52:42;;;;;;;22.73;15.70;;;14.70;74.00;;;13.42;76.12;96324.22;4949656;28;20043;-64
2021/09/08 02:55:08;;;;;;;19.27;15.40;;;14.60;74.10;;;13.39;76.25;96320.16;4955818;28;20149;-66
2021/09/08 02:57:33;;;;;;;20.58;16.40;;;14.60;74.10;;;13.35;75.79;96321.59;4948218;28;20093;-65
2021/09/08 02:59:59;;;;;;;19.33;16.27;;;14.60;74.40;;;13.35;76.34;96316.31;4968413;28;20118;-65
2021/09/08 03:02:25;;;;;;;18.15;15.63;;;14.60;74.40;;;13.34;75.57;96314.66;4966706;28;20979;-65
2021/09/08 03:04:51;;;;;;;22.80;16.58;;;14.60;74.60;;;13.30;75.59;96310.78;4951838;28;20051;-65
2021/09/08 03:07:16;;;;;;;17.23;15.38;;;14.60;74.70;;;13.32;76.65;96308.75;4950768;28;20218;-65
2021/09/08 03:09:42;;;;;;;18.67;15.27;;;14.60;74.70;;;13.32;75.91;96310.59;4958874;28;20866;-65
2021/09/08 03:12:08;;;;;;;19.38;16.02;;;14.60;74.80;;;13.30;77.09;96307.34;4934353;28;20487;-65
2021/09/08 03:14:34;;;;;;;20.50;16.35;;;14.50;75.00;;;13.28;76.83;96304.88;4941741;28;20039;-64
2021/09/08 03:16:59;;;;;;;20.45;16.38;;;14.60;75.20;;;13.27;76.36;96297.97;4963474;28;20055;-65
2021/09/08 03:19:25;;;;;;;20.55;16.27;;;14.50;75.20;;;13.25;77.08;96294.72;4953018;28;20121;-65
2021/09/08 03:21:51;;;;;;;20.40;16.33;;;14.50;75.30;;;13.25;76.05;96300.00;4969524;28;20114;-65
2021/09/08 03:24:16;;;;;;;19.00;15.70;;;14.50;75.40;;;13.24;76.27;96303.66;4969631;28;20043;-65
2021/09/08 03:26:42;;;;;;;18.83;15.18;;;14.50;75.40;;;13.20;77.06;96297.16;4969182;28;20070;-65
2021/09/08 03:29:08;;;;;;;18.60;16.10;;;14.40;75.60;;;13.16;77.30;96306.47;4946212;28;20058;-65
2021/09/08 03:31:34;;;;;;;21.17;16.80;;;14.40;75.90;;;13.12;77.20;96299.94;4952557;28;20030;-65
2021/09/08 03:34:00;;;;;;;20.90;17.77;;;14.30;76.30;;;13.09;77.53;96305.63;4937326;28;20058;-65
2021/09/08 03:36:25;;;;;;;24.35;17.85;;;14.40;76.50;;;13.05;77.81;96299.94;4967534;28;20086;-65
2021/09/08 03:38:51;;;;;;;22.75;18.27;;;14.30;76.80;;;13.03;79.01;96306.44;4970162;28;20042;-65
2021/09/08 03:41:17;;;;;;;23.00;17.50;;;14.30;77.10;;;13.03;79.03;96295.88;4969750;28;20167;-65
2021/09/08 03:43:42;;;;;;;21.40;18.00;;;14.30;77.10;;;13.03;79.30;96301.97;4952283;28;20518;-65
2021/09/08 03:46:08;;;;;;;21.70;18.00;;;14.30;77.20;;;13.01;78.78;96285.50;4949775;28;20078;-66
2021/09/08 03:48:34;;;;;;;21.60;17.90;;;14.30;77.20;;;13.03;78.91;96295.88;4950292;28;20047;-65
2021/09/08 03:51:00;;;;;;;24.30;18.42;;;14.30;77.30;;;13.04;79.31;96300.13;4968089;28;20498;-67
2021/09/08 03:53:26;;;;;;;23.10;18.05;;;14.30;77.30;;;13.02;79.53;96295.06;4967760;28;20039;-68
2021/09/08 03:55:52;;;;;;;19.85;17.60;;;14.30;77.30;;;13.02;79.79;96302.16;4958176;28;20118;-68
2021/09/08 03:58:18;;;;;;;23.88;18.40;;;14.30;77.50;;;13.01;79.87;96297.91;4974375;28;20031;-67
2021/09/08 04:00:43;;;;;;;23.10;18.52;;;14.30;77.50;;;13.01;79.91;96296.06;4920883;28;20379;-68
2021/09/08 04:03:09;;;;;;;22.52;18.10;;;14.20;77.60;;;13.00;80.17;96298.91;4957573;28;20023;-68
2021/09/08 04:05:35;;;;;;;29.90;23.23;;;14.20;77.70;;;12.98;79.27;96293.00;4965799;28;20493;-68
2021/09/08 04:08:01;;;;;;;32.30;25.13;;;14.20;78.00;;;12.97;79.59;96291.38;4949921;29;20126;-68
2021/09/08 04:10:27;;;;;;;27.80;21.50;;;14.20;78.00;;;12.96;80.17;96300.31;4964784;28;20062;-68
2021/09/08 04:12:53;;;;;;;30.20;24.40;;;14.20;77.70;;;12.95;79.91;96296.06;4933711;28;20063;-68
2021/09/08 04:15:19;;;;;;;26.13;22.00;;;14.20;77.70;;;12.93;79.37;96296.25;4960405;28;20129;-69
2021/09/08 04:17:44;;;;;;;25.88;21.63;;;14.10;77.70;;;12.90;80.34;96291.38;4969350;28;20085;-67
2021/09/08 04:20:10;;;;;;;28.02;21.63;;;14.10;77.80;;;12.87;79.90;96297.03;4953029;28;20110;-68
2021/09/08 04:22:36;;;;;;;23.17;19.23;;;14.10;77.80;;;12.85;80.51;96288.50;4952438;28;20035;-68
2021/09/08 04:25:03;;;;;;;23.70;19.23;;;14.10;78.10;;;12.84;80.46;96287.69;4952053;28;20390;-67
2021/09/08 04:27:29;;;;;;;22.83;18.85;;;14.10;78.10;;;12.83;80.52;96291.34;4936121;28;20388;-68
2021/09/08 04:29:54;;;;;;;22.35;18.95;;;14.10;78.30;;;12.86;81.07;96296.22;4968864;28;20037;-68
2021/09/08 04:32:20;;;;;;;22.40;18.75;;;14.10;78.40;;;12.86;80.30;96296.22;4952512;28;20497;-68
2021/09/08 04:34:46;;;;;;;24.17;20.02;;;14.10;78.40;;;12.84;81.08;96292.97;4968347;28;20059;-68
2021/09/08 04:37:12;;;;;;;23.30;19.48;;;14.10;78.30;;;12.82;80.95;96292.34;4965392;28;20027;-68
2021/09/08 04:39:37;;;;;;;24.00;19.70;;;14.10;78.60;;;12.83;81.03;96293.16;4958455;28;20154;-68
2021/09/08 04:42:03;;;;;;;26.25;19.98;;;14.10;78.50;;;12.82;81.10;96292.34;4968812;28;20117;-68
2021/09/08 04:44:29;;;;;;;26.02;20.65;;;14.10;78.60;;;12.82;80.94;96294.19;4965292;28;20038;-68
2021/09/08 04:46:55;;;;;;;25.25;20.25;;;14.10;78.60;;;12.81;81.68;96298.63;4954471;28;20344;-68
2021/09/08 04:49:20;;;;;;;25.30;20.33;;;14.10;78.50;;;12.80;81.06;96297.00;4936772;28;20567;-68
2021/09/08 04:51:46;;;;;;;57.08;45.70;;;14.10;78.30;;;12.78;81.20;96291.13;4965034;28;20491;-68
2021/09/08 04:54:12;;;;;;;44.33;37.15;;;14.10;78.30;;;12.78;81.22;96287.66;4948693;28;20126;-67
2021/09/08 04:56:38;;;;;;;35.38;29.00;;;14.10;78.00;;;12.77;81.10;96292.13;4968585;28;20035;-68
2021/09/08 04:59:04;;;;;;;42.72;32.10;;;14.10;78.00;;;12.75;81.00;96291.53;4968608;28;20042;-67
2021/09/08 05:01:30;;;;;;;38.40;30.00;;;14.10;78.00;;;12.73;81.45;96298.00;4968320;28;20110;-67
2021/09/08 05:03:56;;;;;;;32.50;26.75;;;14.10;78.80;;;12.74;81.79;96297.00;4968432;28;20118;-68
2021/09/08 05:06:21;;;;;;;28.73;24.42;;;14.10;79.10;;;12.76;82.53;96300.25;4969514;28;20054;-68
2021/09/08 05:08:49;;;;;;;36.88;29.45;;;14.10;79.50;;;12.78;82.39;96300.88;4948960;28;20059;-68
2021/09/08 05:11:15;;;;;;;39.17;32.15;;;14.10;79.80;;;12.79;82.24;96300.66;4949451;28;20127;-67
2021/09/08 05:13:41;;;;;;;35.17;27.45;;;14.10;80.10;;;12.81;82.99;96298.63;4948892;28;20027;-68
2021/09/08 05:16:09;;;;;;;36.47;29.60;;;14.20;80.40;;;12.80;83.86;96291.72;4949093;28;20038;-67
2021/09/08 05:18:35;;;;;;;37.85;31.05;;;14.20;80.70;;;12.84;84.00;96292.16;4948947;28;20035;-68
2021/09/08 05:21:01;;;;;;;37.05;28.80;;;14.30;80.70;;;12.85;84.19;96294.59;4951167;28;20030;-67
2021/09/08 05:23:27;;;;;;;37.47;27.73;;;14.30;81.00;;;12.86;84.50;96298.03;4957400;28;20027;-67
2021/09/08 05:25:53;;;;;;;33.47;27.80;;;14.30;81.10;;;12.87;84.29;96303.13;4968173;28;20035;-69
2021/09/08 05:28:19;;;;;;;46.58;33.22;;;14.30;81.20;;;12.93;85.39;96300.72;4952239;28;20031;-68
2021/09/08 05:30:46;;;;;;;39.58;31.70;;;14.40;81.10;;;12.95;84.89;96302.16;4951940;28;20038;-67
2021/09/08 05:33:12;;;;;;;38.10;28.42;;;14.40;81.10;;;12.97;85.49;96302.75;4948878;28;20031;-67
2021/09/08 05:35:37;;;;;;;35.17;27.92;;;14.50;81.30;;;13.00;84.76;96304.19;4947482;28;20038;-67
2021/09/08 05:38:03;;;;;;;37.85;29.02;;;14.50;81.20;;;13.00;85.37;96306.84;4970315;28;20458;-67
2021/09/08 05:40:29;;;;;;;38.45;28.38;;;14.50;81.30;;;13.03;85.66;96301.97;4955963;28;20055;-67
2021/09/08 05:42:55;;;;;;;34.28;27.05;;;14.60;81.40;;;13.06;85.88;96300.75;4971116;28;20399;-67
2021/09/08 05:45:20;;;;;;;35.63;28.58;;;14.60;81.30;;;13.11;86.43;96298.31;4955687;28;20510;-67
2021/09/08 05:47:46;;;;;;;36.22;28.02;;;14.70;81.40;;;13.16;85.85;96295.91;4971897;28;20074;-67
2021/09/08 05:50:12;;;;;;;37.33;28.48;;;14.70;81.30;;;13.21;86.70;96292.69;4958277;28;20046;-67
2021/09/08 05:52:38;;;;;;;35.58;28.30;;;14.80;81.20;;;13.24;86.61;96293.09;4952135;28;20071;-67
2021/09/08 05:55:04;;;;;;;36.10;28.48;;;14.80;81.30;;;13.30;85.85;96287.00;4952017;28;20042;-67
2021/09/08 05:57:30;;;;;;;33.75;26.75;;;14.90;81.20;;;13.34;86.52;96293.50;4952185;28;20046;-67
2021/09/08 05:59:56;;;;;;;29.50;25.80;;;14.90;80.90;;;13.39;86.72;96296.38;4952385;28;20031;-67
2021/09/08 06:02:22;;;;;;;33.70;27.23;;;15.10;80.80;;;13.47;86.56;96288.25;4936122;29;20039;-67
2021/09/08 06:04:47;;;;;;;32.65;26.50;;;15.10;80.70;;;13.55;86.17;96294.34;4969043;28;20415;-68
2021/09/08 06:07:13;;;;;;;32.72;26.33;;;15.30;80.40;;;13.61;86.50;96298.84;4971565;28;20565;-68
2021/09/08 06:09:39;;;;;;;36.47;25.92;;;15.30;80.30;;;13.66;86.64;96302.50;4971414;28;20069;-67
2021/09/08 06:12:05;;;;;;;36.22;27.50;;;15.40;80.20;;;13.74;86.39;96298.84;4971432;28;20031;-67
2021/09/08 06:14:31;;;;;;;31.05;25.20;;;15.50;79.80;;;13.78;86.27;96289.47;4971263;28;20502;-68
2021/09/08 06:16:57;;;;;;;32.38;25.48;;;15.50;79.40;;;13.83;86.02;96287.06;4968363;28;20043;-67
2021/09/08 06:19:22;;;;;;;32.63;26.17;;;15.60;79.40;;;13.87;85.22;96282.97;4951952;28;20531;-67
2021/09/08 06:21:48;;;;;;;31.63;25.00;;;15.50;79.30;;;13.93;84.91;96282.16;4951801;28;20035;-67
2021/09/08 06:24:14;;;;;;;31.95;25.48;;;15.60;79.00;;;13.97;85.89;96288.66;4952126;28;20058;-67
2021/09/08 06:26:40;;;;;;;31.88;24.95;;;15.70;79.00;;;14.03;85.40;96282.56;4934937;28;20094;-69
2021/09/08 06:29:06;;;;;;;31.73;24.60;;;15.70;79.10;;;14.12;84.76;96282.34;4951831;28;20049;-68
2021/09/08 06:31:32;;;;;;;33.92;24.85;;;15.80;78.90;;;14.19;85.06;96283.94;4968115;28;20122;-67
2021/09/08 06:33:58;;;;;;;33.25;25.67;;;15.90;78.60;;;14.22;84.45;96277.41;4952026;28;20430;-67
2021/09/08 06:36:23;;;;;;;35.85;29.40;;;15.90;78.40;;;14.29;83.90;96280.88;4945968;28;20038;-68
2021/09/08 06:38:49;;;;;;;32.67;26.52;;;16.00;78.20;;;14.36;84.46;96281.66;4938759;28;20386;-67
2021/09/08 06:41:16;;;;;;;29.30;24.45;;;16.10;77.80;;;14.42;84.33;96275.53;4971226;28;20755;-67
2021/09/08 06:43:41;;;;;;;32.53;24.30;;;16.10;77.50;;;14.52;84.79;96275.94;4954016;28;20031;-67
2021/09/08 06:46:07;;;;;;;29.60;25.13;;;16.40;77.40;;;14.60;83.72;96278.34;4950725;28;20428;-68
2021/09/08 06:48:33;;;;;;;28.88;23.95;;;16.40;76.70;;;14.70;84.20;96273.41;4950320;28;20391;-67
2021/09/08 06:50:59;;;;;;;28.70;23.83;;;16.60;76.50;;;14.83;83.58;96274.38;4969966;28;20125;-67
2021/09/08 06:53:24;;;;;;;29.75;22.85;;;16.70;76.30;;;14.95;83.00;96267.41;4970437;28;20027;-67
2021/09/08 06:55:50;;;;;;;31.65;23.92;;;16.80;75.80;;;15.08;83.38;96266.50;4970763;28;20134;-67
2021/09/08 06:58:16;;;;;;;26.38;22.70;;;17.00;75.40;;;15.23;82.04;96265.19;4954606;28;20027;-67
2021/09/08 07:00:42;;;;;;;29.02;21.80;;;17.10;74.80;;;15.36;81.79;96261.63;4969275;28;20473;-68
2021/09/08 07:03:07;;;;;;;32.20;23.83;;;17.40;74.50;;;15.52;82.35;96261.13;4970318;28;20403;-68
2021/09/08 07:05:35;;;;;;;28.25;23.00;;;17.60;74.00;;;15.66;81.15;96256.56;4970235;28;20383;-68
2021/09/08 07:08:01;;;;;;;29.73;23.35;;;17.70;73.50;;;15.78;81.27;96265.41;4938508;28;20063;-68
2021/09/08 07:10:27;;;;;;;27.55;23.20;;;17.80;72.60;;;15.91;80.44;96254.72;4970331;28;20053;-68
2021/09/08 07:12:53;;;;;;;30.73;24.42;;;18.10;71.80;;;16.06;80.64;96257.00;4953264;28;20618;-67
2021/09/08 07:15:19;;;;;;;50.00;37.55;;;18.10;70.90;;;16.19;79.63;96254.22;4936554;29;20070;-68
2021/09/08 07:17:45;;;;;;;30.67;25.58;;;18.50;70.80;;;16.32;79.35;96249.81;4934779;29;20035;-68
2021/09/08 07:20:11;;;;;;;27.98;22.88;;;18.50;69.90;;;16.47;78.07;96256.34;4951032;28;20067;-67
2021/09/08 07:22:36;;;;;;;28.17;22.50;;;18.70;68.80;;;16.65;78.28;96255.53;4950363;28;20127;-67
2021/09/08 07:25:02;;;;;;;27.38;23.02;;;18.90;68.20;;;16.73;77.51;96255.25;4949921;28;20135;-67
2021/09/08 07:27:28;;;;;;;26.45;22.08;;;19.00;67.60;;;16.88;76.85;96252.22;4950383;28;20131;-68
2021/09/08 07:29:54;;;;;;;27.17;22.27;;;19.10;67.10;;;17.02;76.07;96248.34;4947806;28;20125;-67
2021/09/08 07:32:20;;;;;;;27.38;20.95;;;19.30;66.40;;;17.20;75.71;96244.84;4969359;28;20057;-67
2021/09/08 07:34:46;;;;;;;29.23;20.38;;;19.60;65.90;;;17.43;75.33;96252.06;4969289;28;20415;-68
2021/09/08 07:37:11;;;;;;;25.67;19.55;;;19.90;65.70;;;17.64;75.47;96251.50;4954553;28;20038;-68
2021/09/08 07:39:37;;;;;;;26.63;21.02;;;20.20;64.30;;;17.87;74.53;96252.59;4978189;28;20027;-67
2021/09/08 07:42:03;;;;;;;24.55;20.00;;;20.50;63.10;;;18.07;73.53;96253.06;4950238;28;20058;-67
2021/09/08 07:44:29;;;;;;;23.27;19.02;;;20.80;62.40;;;18.27;72.84;96253.50;4948546;28;20037;-68
2021/09/08 07:46:54;;;;;;;21.73;18.58;;;21.10;60.50;;;18.52;71.95;96247.09;4953284;28;20110;-68
2021/09/08 07:49:20;;;;;;;22.77;18.52;;;21.50;59.70;;;18.74;71.12;96248.13;4953556;28;20101;-67
2021/09/08 07:51:46;;;;;;;24.63;18.23;;;21.80;58.90;;;18.95;71.70;96250.13;4953258;28;20058;-67
2021/09/08 07:54:11;;;;;;;21.65;17.83;;;22.00;57.50;;;19.16;70.91;96245.19;4953749;28;20042;-67
2021/09/08 07:56:37;;;;;;;20.75;17.38;;;22.20;56.50;;;19.36;69.29;96248.22;4954029;28;20637;-67
2021/09/08 07:59:03;;;;;;;21.80;17.60;;;22.50;55.90;;;19.58;69.71;96238.50;4950114;28;20507;-68
2021/09/08 08:01:32;;;;;;;20.38;16.38;;;22.70;55.10;;;19.79;69.34;96241.47;4933880;29;20039;-68
2021/09/08 08:03:58;;;;;;;23.80;16.98;;;23.00;55.30;;;20.00;67.94;96243.41;4950668;29;20027;-68
2021/09/08 08:06:24;;;;;;;22.13;16.38;;;23.10;53.80;;;20.15;67.40;96243.66;4934515;29;20082;-67
2021/09/08 08:08:50;;;;;;;21.35;16.35;;;23.40;53.40;;;20.39;67.15;96244.22;4934425;28;20451;-68
2021/09/08 08:11:16;;;;;;;21.98;16.38;;;23.60;52.80;;;20.58;65.78;96244.75;4950989;28;20123;-68
2021/09/08 08:13:42;;;;;;;19.85;16.23;;;23.80;52.60;;;20.77;65.68;96243.38;4950325;29;20023;-68
2021/09/08 08:16:08;;;;;;;21.60;15.75;;;23.90;51.70;;;20.99;65.12;96242.56;4918938;29;20065;-67
2021/09/08 08:18:33;;;;;;;19.52;15.60;;;24.20;51.60;;;21.12;64.10;96236.81;4934755;29;20510;-68
2021/09/08 08:20:59;;;;;;;18.23;14.07;;;24.30;51.10;;;21.34;63.82;96234.94;4934076;28;20042;-68
2021/09/08 08:23:25;;;;;;;19.10;13.77;;;24.50;51.40;;;21.52;63.42;96227.59;4950288;28;20039;-68
2021/09/08 08:25:51;;;;;;;20.90;14.82;;;24.60;50.60;;;21.74;63.47;96228.31;4934338;29;20087;-68
2021/09/08 08:28:17;;;;;;;18.23;14.57;;;24.80;49.90;;;21.94;62.60;96217.72;4968802;28;20070;-68
2021/09/08 08:30:42;;;;;;;20.90;13.48;;;25.00;49.90;;;22.10;61.82;96220.56;4949731;28;20466;-67
2021/09/08 08:33:08;;;;;;;19.02;14.15;;;25.10;49.30;;;22.26;61.09;96227.63;4965889;28;20039;-67
2021/09/08 08:35:34;;;;;;;17.88;13.02;;;25.00;48.40;;;22.40;60.17;96219.91;4953876;28;20114;-67
2021/09/08 08:38:00;;;;;;;16.95;13.73;;;25.40;47.40;;;22.57;59.77;96226.69;4969866;28;20109;-67
2021/09/08 08:40:26;;;;;;;18.27;13.48;;;25.50;47.90;;;22.81;59.28;96223.56;4936497;28;20502;-67
2021/09/08 08:42:52;;;;;;;16.95;12.35;;;25.60;46.90;;;23.01;58.82;96226.34;4951822;28;20406;-68
2021/09/08 08:45:18;;;;;;;14.75;11.90;;;26.00;47.10;;;23.23;58.59;96226.94;4934358;29;20066;-68
2021/09/08 08:47:43;;;;;;;16.98;12.23;;;26.10;46.20;;;23.47;57.92;96223.75;4934562;29;20491;-67
2021/09/08 08:50:11;;;;;;;16.00;13.00;;;26.40;46.20;;;23.66;57.76;96221.38;4950418;29;20031;-68
2021/09/08 08:52:37;;;;;;;15.63;12.38;;;26.50;44.90;;;23.89;57.33;96214.66;4934305;29;20040;-67
2021/09/08 08:55:04;;;;;;;16.58;11.70;;;26.70;45.60;;;24.11;56.93;96215.16;4949987;28;20042;-67
2021/09/08 08:57:30;;;;;;;15.00;11.82;;;27.00;44.40;;;24.42;56.57;96218.59;4965861;28;20048;-67
2021/09/08 08:59:56;;;;;;;14.80;11.98;;;27.30;44.30;;;24.70;56.08;96217.16;4953598;28;20410;-67
2021/09/08 09:02:23;;;;;;;17.02;11.90;;;27.50;43.90;;;24.99;54.28;96214.63;4969384;28;20042;-68
2021/09/08 09:04:51;;;;;;;16.83;11.50;;;27.90;43.40;;;25.22;53.97;96215.84;4952849;28;20089;-68
2021/09/08 09:07:35;;;;;;;13.23;11.07;;;27.90;42.60;;;25.43;50.65;96208.44;4953568;28;20115;-68
2021/09/08 09:10:10;;;;;;;13.93;10.80;;;28.10;42.30;;;25.68;50.05;96202.88;4965799;28;20150;-68
2021/09/08 09:12:39;;;;;;;17.10;11.02;;;28.30;41.60;;;25.94;50.86;96206.16;4935303;29;20035;-68
2021/09/08 09:15:06;;;;;;;15.07;11.65;;;28.60;41.00;;;26.14;50.52;96197.88;4954814;28;20031;-68
2021/09/08 09:17:33;;;;;;;15.77;11.48;;;28.70;40.00;;;26.28;50.08;96203.41;4972660;28;20030;-68
2021/09/08 09:20:03;;;;;;;16.58;11.77;;;28.70;39.60;;;26.36;48.22;96197.41;4957009;28;20409;-68
2021/09/08 09:22:42;;;;;;;15.63;10.77;;;28.80;39.90;;;26.59;47.13;96195.78;4940759;28;20031;-68
2021/09/08 09:25:10;;;;;;;14.40;10.80;;;29.10;39.90;;;26.84;48.91;96190.06;4940865;28;20483;-68
2021/09/08 09:27:38;;;;;;;13.60;10.70;;;29.30;40.10;;;27.04;48.67;96188.22;4958217;28;20086;-68
2021/09/08 09:30:09;;;;;;;13.40;10.02;;;29.30;39.00;;;27.26;46.63;96193.81;4953422;29;20058;-68
2021/09/08 09:32:37;;;;;;;12.73;9.88;;;29.60;39.70;;;27.48;47.63;96184.31;4945417;29;20046;-68
2021/09/08 09:35:04;;;;;;;13.45;10.35;;;29.80;38.50;;;27.63;47.14;96184.91;4971993;28;20506;-67
2021/09/08 09:37:34;;;;;;;13.48;10.25;;;29.90;37.80;;;27.86;44.27;96185.09;4969408;28;20118;-68
2021/09/08 09:40:04;;;;;;;12.70;10.38;;;30.30;37.60;;;28.09;44.19;96173.31;4944792;28;20114;-68
2021/09/08 09:42:31;;;;;;;11.77;9.45;;;30.40;37.40;;;28.28;45.55;96181.34;4955781;28;20126;-68
2021/09/08 09:45:05;;;;;;;11.18;8.35;;;30.70;36.80;;;28.56;42.58;96176.75;4971892;28;20127;-68
2021/09/08 09:47:40;;;;;;;11.45;8.25;;;31.00;36.20;;;28.76;42.73;96170.13;4972372;28;20406;-68
2021/09/08 09:50:09;;;;;;;9.93;8.02;;;31.20;36.40;;;28.95;43.33;96173.50;4956315;28;20030;-68
2021/09/08 09:52:35;;;;;;;13.30;8.93;;;31.40;35.40;;;29.10;43.23;96165.06;4972155;28;20055;-68
2021/09/08 09:55:05;;;;;;;11.23;7.97;;;31.60;35.20;;;29.37;40.85;96152.50;4971897;28;20039;-68
2021/09/08 09:57:31;;;;;;;;;;;32.00;34.30;;;29.52;40.30;96149.47;4972689;28;20033;-68
2021/09/08 09:59:58;;;;;;;14.32;8.25;;;32.10;34.20;;;29.75;43.07;96153.78;4972363;28;19914;-68
2021/09/08 10:02:24;;;;;;;9.82;8.18;;;32.40;33.40;;;30.09;43.45;96153.16;4955599;28;20043;-68
2021/09/08 10:04:50;;;;;;;8.60;7.68;;;32.70;33.40;;;30.45;42.65;96139.44;4971586;28;20035;-68